KDNL/DNL METAR and TAF weather

Enter ICAO airport designator
Station Type Date Time Source
KDNL METAR 2024/04/15 08:53 UTC NOAA

KDNL 150853Z AUTO VRB03KT 10SM CLR 19/11 A3002 RMK AO2 SLP160 T01890111 55004


Station Type Date Time Source
KDNL Decoded METAR 2024/04/15 08:53 UTC NOAA

AUGUSTA DANIEL FIELD, GA, United States (KDNL) 33-28N 82-02W 130M
Apr 15, 2024 - 04:53 AM EDT / 2024.04.15 0853 UTC
Wind: Variable at 3 MPH (3 KT):0
Visibility: 10 mile(s):0
Sky conditions: clear
Temperature: 66.0 F (18.9 C)
Dew Point: 52.0 F (11.1 C)
Relative Humidity: 60%
Pressure (altimeter): 30.02 in. Hg (1016 hPa)
Pressure tendency: 0.01 inches (0.4 hPa) lower than three hours ago
ob: KDNL 150853Z AUTO VRB03KT 10SM CLR 19/11 A3002 RMK AO2 SLP160 T01890111 55004
cycle: 9

Station Type Date Time Source
KDNL TAF 2024/04/15 09:57 UTC NOAA